sensor_id;sensor_type;location;lat;lon;timestamp;P1;durP1;ratioP1;P2;durP2;ratioP2
8584;SDS011;7180;52.742;11.420;2023-03-11T00:00:05;21.60;;;19.90;;
8584;SDS011;7180;52.742;11.420;2023-03-11T00:02:37;21.57;;;19.77;;
8584;SDS011;7180;52.742;11.420;2023-03-11T00:05:03;22.10;;;20.27;;
8584;SDS011;7180;52.742;11.420;2023-03-11T00:07:28;21.83;;;20.03;;
8584;SDS011;7180;52.742;11.420;2023-03-11T00:09:54;21.30;;;19.43;;
8584;SDS011;7180;52.742;11.420;2023-03-11T00:12:19;21.33;;;19.53;;
8584;SDS011;7180;52.742;11.420;2023-03-11T00:14:44;22.10;;;20.20;;
8584;SDS011;7180;52.742;11.420;2023-03-11T00:17:09;22.00;;;20.10;;
8584;SDS011;7180;52.742;11.420;2023-03-11T00:19:35;21.67;;;19.77;;
8584;SDS011;7180;52.742;11.420;2023-03-11T00:22:00;21.60;;;19.70;;
8584;SDS011;7180;52.742;11.420;2023-03-11T00:24:26;20.00;;;18.23;;
8584;SDS011;7180;52.742;11.420;2023-03-11T00:26:52;20.87;;;18.77;;
8584;SDS011;7180;52.742;11.420;2023-03-11T00:29:17;21.17;;;19.07;;
8584;SDS011;7180;52.742;11.420;2023-03-11T00:31:42;21.50;;;19.53;;
8584;SDS011;7180;52.742;11.420;2023-03-11T00:34:07;21.13;;;19.03;;
8584;SDS011;7180;52.742;11.420;2023-03-11T00:36:33;21.70;;;19.80;;
8584;SDS011;7180;52.742;11.420;2023-03-11T00:38:59;20.73;;;18.93;;
8584;SDS011;7180;52.742;11.420;2023-03-11T00:41:26;20.77;;;18.97;;
8584;SDS011;7180;52.742;11.420;2023-03-11T00:43:51;20.60;;;18.73;;
8584;SDS011;7180;52.742;11.420;2023-03-11T00:46:17;19.53;;;18.03;;
8584;SDS011;7180;52.742;11.420;2023-03-11T00:48:42;18.17;;;16.77;;
8584;SDS011;7180;52.742;11.420;2023-03-11T00:51:10;17.90;;;16.40;;
8584;SDS011;7180;52.742;11.420;2023-03-11T00:53:38;17.97;;;16.63;;
8584;SDS011;7180;52.742;11.420;2023-03-11T00:56:09;18.50;;;17.00;;
8584;SDS011;7180;52.742;11.420;2023-03-11T00:58:37;17.77;;;16.47;;
8584;SDS011;7180;52.742;11.420;2023-03-11T01:01:06;17.50;;;16.20;;
8584;SDS011;7180;52.742;11.420;2023-03-11T01:03:36;18.43;;;17.03;;
8584;SDS011;7180;52.742;11.420;2023-03-11T01:06:02;18.30;;;16.83;;
8584;SDS011;7180;52.742;11.420;2023-03-11T01:08:28;17.00;;;15.60;;
8584;SDS011;7180;52.742;11.420;2023-03-11T01:10:55;16.53;;;15.23;;
8584;SDS011;7180;52.742;11.420;2023-03-11T01:13:21;16.90;;;15.67;;
8584;SDS011;7180;52.742;11.420;2023-03-11T01:15:46;17.40;;;16.10;;
8584;SDS011;7180;52.742;11.420;2023-03-11T01:18:11;18.40;;;17.03;;
8584;SDS011;7180;52.742;11.420;2023-03-11T01:20:38;19.67;;;18.13;;
8584;SDS011;7180;52.742;11.420;2023-03-11T01:23:07;20.67;;;18.97;;
8584;SDS011;7180;52.742;11.420;2023-03-11T01:25:32;20.60;;;18.87;;
8584;SDS011;7180;52.742;11.420;2023-03-11T01:27:59;19.77;;;18.07;;
8584;SDS011;7180;52.742;11.420;2023-03-11T01:30:24;21.20;;;19.30;;
8584;SDS011;7180;52.742;11.420;2023-03-11T01:32:51;19.83;;;18.03;;
8584;SDS011;7180;52.742;11.420;2023-03-11T01:35:18;20.23;;;18.33;;
8584;SDS011;7180;52.742;11.420;2023-03-11T01:37:45;20.97;;;19.17;;
8584;SDS011;7180;52.742;11.420;2023-03-11T01:43:04;20.90;;;19.00;;
8584;SDS011;7180;52.742;11.420;2023-03-11T01:45:37;21.97;;;19.97;;
8584;SDS011;7180;52.742;11.420;2023-03-11T01:48:05;21.57;;;19.67;;
8584;SDS011;7180;52.742;11.420;2023-03-11T01:50:33;21.33;;;19.53;;
8584;SDS011;7180;52.742;11.420;2023-03-11T01:53:02;20.17;;;18.47;;
8584;SDS011;7180;52.742;11.420;2023-03-11T01:55:29;20.37;;;18.67;;
8584;SDS011;7180;52.742;11.420;2023-03-11T01:57:55;20.20;;;18.40;;
8584;SDS011;7180;52.742;11.420;2023-03-11T02:00:20;20.63;;;18.60;;
8584;SDS011;7180;52.742;11.420;2023-03-11T02:02:50;20.20;;;18.57;;
8584;SDS011;7180;52.742;11.420;2023-03-11T02:05:18;20.00;;;18.37;;
8584;SDS011;7180;52.742;11.420;2023-03-11T02:07:44;20.70;;;18.90;;
8584;SDS011;7180;52.742;11.420;2023-03-11T02:10:11;20.17;;;18.57;;
8584;SDS011;7180;52.742;11.420;2023-03-11T02:12:37;19.50;;;18.00;;
8584;SDS011;7180;52.742;11.420;2023-03-11T02:15:04;20.10;;;18.50;;
8584;SDS011;7180;52.742;11.420;2023-03-11T02:17:30;18.53;;;17.13;;
8584;SDS011;7180;52.742;11.420;2023-03-11T02:20:18;19.30;;;17.80;;
8584;SDS011;7180;52.742;11.420;2023-03-11T02:22:51;18.60;;;17.07;;
8584;SDS011;7180;52.742;11.420;2023-03-11T02:25:33;18.97;;;17.47;;
8584;SDS011;7180;52.742;11.420;2023-03-11T02:28:14;19.57;;;17.80;;
8584;SDS011;7180;52.742;11.420;2023-03-11T02:30:43;19.33;;;17.83;;
8584;SDS011;7180;52.742;11.420;2023-03-11T02:33:09;19.63;;;17.90;;
8584;SDS011;7180;52.742;11.420;2023-03-11T02:35:35;19.07;;;17.17;;
8584;SDS011;7180;52.742;11.420;2023-03-11T02:38:01;18.77;;;17.07;;
8584;SDS011;7180;52.742;11.420;2023-03-11T02:42:54;17.57;;;16.07;;
8584;SDS011;7180;52.742;11.420;2023-03-11T02:45:23;18.00;;;16.50;;
8584;SDS011;7180;52.742;11.420;2023-03-11T02:47:50;18.13;;;16.53;;
8584;SDS011;7180;52.742;11.420;2023-03-11T02:50:16;19.03;;;17.13;;
8584;SDS011;7180;52.742;11.420;2023-03-11T02:52:43;18.80;;;17.13;;
8584;SDS011;7180;52.742;11.420;2023-03-11T02:55:09;19.70;;;17.90;;
8584;SDS011;7180;52.742;11.420;2023-03-11T02:57:36;19.37;;;17.60;;
8584;SDS011;7180;52.742;11.420;2023-03-11T03:00:02;18.77;;;17.10;;
8584;SDS011;7180;52.742;11.420;2023-03-11T03:02:34;18.93;;;17.23;;
8584;SDS011;7180;52.742;11.420;2023-03-11T03:05:00;19.13;;;17.37;;
8584;SDS011;7180;52.742;11.420;2023-03-11T03:07:25;18.97;;;17.27;;
8584;SDS011;7180;52.742;11.420;2023-03-11T03:09:50;19.33;;;17.50;;
8584;SDS011;7180;52.742;11.420;2023-03-11T03:12:16;18.53;;;16.83;;
8584;SDS011;7180;52.742;11.420;2023-03-11T03:14:41;19.37;;;17.43;;
8584;SDS011;7180;52.742;11.420;2023-03-11T03:17:06;20.13;;;18.20;;
8584;SDS011;7180;52.742;11.420;2023-03-11T03:19:31;20.07;;;18.10;;
8584;SDS011;7180;52.742;11.420;2023-03-11T03:21:57;20.67;;;18.63;;
8584;SDS011;7180;52.742;11.420;2023-03-11T03:24:22;22.23;;;19.97;;
8584;SDS011;7180;52.742;11.420;2023-03-11T03:26:47;22.00;;;19.77;;
8584;SDS011;7180;52.742;11.420;2023-03-11T03:29:12;21.83;;;19.63;;
8584;SDS011;7180;52.742;11.420;2023-03-11T03:31:38;23.83;;;20.67;;
8584;SDS011;7180;52.742;11.420;2023-03-11T03:34:03;23.43;;;20.80;;
8584;SDS011;7180;52.742;11.420;2023-03-11T03:36:28;26.77;;;22.47;;
8584;SDS011;7180;52.742;11.420;2023-03-11T03:38:54;28.17;;;22.33;;
8584;SDS011;7180;52.742;11.420;2023-03-11T03:41:20;27.47;;;23.20;;
8584;SDS011;7180;52.742;11.420;2023-03-11T03:43:46;29.83;;;23.67;;
8584;SDS011;7180;52.742;11.420;2023-03-11T03:46:11;31.93;;;23.87;;
8584;SDS011;7180;52.742;11.420;2023-03-11T03:48:36;28.37;;;23.63;;
8584;SDS011;7180;52.742;11.420;2023-03-11T03:51:03;28.47;;;23.87;;
8584;SDS011;7180;52.742;11.420;2023-03-11T03:53:29;29.50;;;23.30;;
8584;SDS011;7180;52.742;11.420;2023-03-11T03:55:55;26.03;;;22.00;;
8584;SDS011;7180;52.742;11.420;2023-03-11T03:58:20;28.37;;;22.83;;
8584;SDS011;7180;52.742;11.420;2023-03-11T04:00:45;32.03;;;23.77;;
8584;SDS011;7180;52.742;11.420;2023-03-11T04:03:11;29.47;;;23.67;;
8584;SDS011;7180;52.742;11.420;2023-03-11T04:05:36;31.07;;;23.73;;
8584;SDS011;7180;52.742;11.420;2023-03-11T04:08:01;29.17;;;23.53;;
8584;SDS011;7180;52.742;11.420;2023-03-11T04:10:27;30.03;;;23.53;;
8584;SDS011;7180;52.742;11.420;2023-03-11T04:12:53;29.90;;;23.47;;
8584;SDS011;7180;52.742;11.420;2023-03-11T04:15:18;29.23;;;22.23;;
8584;SDS011;7180;52.742;11.420;2023-03-11T04:17:44;30.93;;;23.43;;
8584;SDS011;7180;52.742;11.420;2023-03-11T04:20:09;29.30;;;23.00;;
8584;SDS011;7180;52.742;11.420;2023-03-11T04:22:35;26.10;;;22.30;;
8584;SDS011;7180;52.742;11.420;2023-03-11T04:25:00;28.43;;;22.17;;
8584;SDS011;7180;52.742;11.420;2023-03-11T04:27:26;28.90;;;22.53;;
8584;SDS011;7180;52.742;11.420;2023-03-11T04:29:51;27.83;;;21.67;;
8584;SDS011;7180;52.742;11.420;2023-03-11T04:32:17;26.50;;;21.73;;
8584;SDS011;7180;52.742;11.420;2023-03-11T04:34:42;28.63;;;21.47;;
8584;SDS011;7180;52.742;11.420;2023-03-11T04:37:07;30.23;;;21.50;;
8584;SDS011;7180;52.742;11.420;2023-03-11T04:39:33;24.97;;;21.03;;
8584;SDS011;7180;52.742;11.420;2023-03-11T04:41:58;25.53;;;21.90;;
8584;SDS011;7180;52.742;11.420;2023-03-11T04:44:23;27.47;;;21.93;;
8584;SDS011;7180;52.742;11.420;2023-03-11T04:46:49;25.67;;;20.63;;
8584;SDS011;7180;52.742;11.420;2023-03-11T04:49:14;25.03;;;22.27;;
8584;SDS011;7180;52.742;11.420;2023-03-11T04:51:40;27.80;;;21.40;;
8584;SDS011;7180;52.742;11.420;2023-03-11T04:54:05;25.90;;;21.17;;
8584;SDS011;7180;52.742;11.420;2023-03-11T04:56:31;26.23;;;22.20;;
8584;SDS011;7180;52.742;11.420;2023-03-11T04:58:56;24.17;;;21.47;;
8584;SDS011;7180;52.742;11.420;2023-03-11T05:01:21;27.37;;;22.87;;
8584;SDS011;7180;52.742;11.420;2023-03-11T05:03:46;25.87;;;21.73;;
8584;SDS011;7180;52.742;11.420;2023-03-11T05:06:12;26.27;;;22.23;;
8584;SDS011;7180;52.742;11.420;2023-03-11T05:08:37;24.13;;;21.47;;
8584;SDS011;7180;52.742;11.420;2023-03-11T05:11:03;25.60;;;21.97;;
8584;SDS011;7180;52.742;11.420;2023-03-11T05:13:28;25.70;;;21.50;;
8584;SDS011;7180;52.742;11.420;2023-03-11T05:15:54;23.90;;;21.23;;
8584;SDS011;7180;52.742;11.420;2023-03-11T05:18:19;24.73;;;21.57;;
8584;SDS011;7180;52.742;11.420;2023-03-11T05:20:44;26.57;;;22.37;;
8584;SDS011;7180;52.742;11.420;2023-03-11T05:23:10;25.67;;;21.77;;
8584;SDS011;7180;52.742;11.420;2023-03-11T05:25:35;25.63;;;21.70;;
8584;SDS011;7180;52.742;11.420;2023-03-11T05:28:00;24.00;;;21.23;;
8584;SDS011;7180;52.742;11.420;2023-03-11T05:30:26;25.20;;;21.53;;
8584;SDS011;7180;52.742;11.420;2023-03-11T05:32:51;23.53;;;21.03;;
8584;SDS011;7180;52.742;11.420;2023-03-11T05:35:16;23.23;;;20.80;;
8584;SDS011;7180;52.742;11.420;2023-03-11T05:37:42;22.83;;;20.10;;
8584;SDS011;7180;52.742;11.420;2023-03-11T05:40:08;22.50;;;20.20;;
8584;SDS011;7180;52.742;11.420;2023-03-11T05:42:36;24.20;;;21.37;;
8584;SDS011;7180;52.742;11.420;2023-03-11T05:45:01;23.23;;;20.90;;
8584;SDS011;7180;52.742;11.420;2023-03-11T05:47:26;24.07;;;21.63;;
8584;SDS011;7180;52.742;11.420;2023-03-11T05:49:51;22.50;;;20.20;;
8584;SDS011;7180;52.742;11.420;2023-03-11T05:52:17;23.43;;;20.93;;
8584;SDS011;7180;52.742;11.420;2023-03-11T05:54:42;22.77;;;20.27;;
8584;SDS011;7180;52.742;11.420;2023-03-11T05:57:07;21.70;;;19.60;;
8584;SDS011;7180;52.742;11.420;2023-03-11T05:59:32;23.10;;;20.60;;
8584;SDS011;7180;52.742;11.420;2023-03-11T06:01:59;22.93;;;20.53;;
8584;SDS011;7180;52.742;11.420;2023-03-11T06:04:25;24.10;;;21.57;;
8584;SDS011;7180;52.742;11.420;2023-03-11T06:06:50;23.43;;;21.07;;
8584;SDS011;7180;52.742;11.420;2023-03-11T06:09:15;24.67;;;21.90;;
8584;SDS011;7180;52.742;11.420;2023-03-11T06:11:41;24.77;;;22.17;;
8584;SDS011;7180;52.742;11.420;2023-03-11T06:14:09;24.97;;;22.00;;
8584;SDS011;7180;52.742;11.420;2023-03-11T06:16:36;24.23;;;21.63;;
8584;SDS011;7180;52.742;11.420;2023-03-11T06:19:01;25.57;;;22.47;;
8584;SDS011;7180;52.742;11.420;2023-03-11T06:21:26;26.17;;;21.17;;
8584;SDS011;7180;52.742;11.420;2023-03-11T06:23:51;25.90;;;22.50;;
8584;SDS011;7180;52.742;11.420;2023-03-11T06:26:18;24.93;;;22.23;;
8584;SDS011;7180;52.742;11.420;2023-03-11T06:28:45;25.27;;;22.03;;
8584;SDS011;7180;52.742;11.420;2023-03-11T06:31:13;27.80;;;23.87;;
8584;SDS011;7180;52.742;11.420;2023-03-11T06:33:42;28.20;;;23.10;;
8584;SDS011;7180;52.742;11.420;2023-03-11T06:36:09;25.43;;;22.73;;
8584;SDS011;7180;52.742;11.420;2023-03-11T06:38:35;24.80;;;22.07;;
8584;SDS011;7180;52.742;11.420;2023-03-11T06:41:01;25.67;;;22.67;;
8584;SDS011;7180;52.742;11.420;2023-03-11T06:43:28;26.73;;;23.40;;
8584;SDS011;7180;52.742;11.420;2023-03-11T06:45:54;26.47;;;22.43;;
8584;SDS011;7180;52.742;11.420;2023-03-11T06:48:19;28.53;;;23.43;;
8584;SDS011;7180;52.742;11.420;2023-03-11T06:50:52;25.53;;;22.53;;
8584;SDS011;7180;52.742;11.420;2023-03-11T06:53:18;26.23;;;22.50;;
8584;SDS011;7180;52.742;11.420;2023-03-11T06:55:43;24.77;;;22.13;;
8584;SDS011;7180;52.742;11.420;2023-03-11T06:58:08;25.47;;;22.20;;
8584;SDS011;7180;52.742;11.420;2023-03-11T07:00:34;23.37;;;20.87;;
8584;SDS011;7180;52.742;11.420;2023-03-11T07:02:59;24.47;;;21.77;;
8584;SDS011;7180;52.742;11.420;2023-03-11T07:05:24;26.17;;;21.53;;
8584;SDS011;7180;52.742;11.420;2023-03-11T07:07:51;24.13;;;21.63;;
8584;SDS011;7180;52.742;11.420;2023-03-11T07:10:17;22.93;;;20.53;;
8584;SDS011;7180;52.742;11.420;2023-03-11T07:12:42;24.57;;;21.90;;
8584;SDS011;7180;52.742;11.420;2023-03-11T07:15:08;24.27;;;21.57;;
8584;SDS011;7180;52.742;11.420;2023-03-11T07:17:33;22.83;;;20.37;;
8584;SDS011;7180;52.742;11.420;2023-03-11T07:19:59;24.53;;;20.87;;
8584;SDS011;7180;52.742;11.420;2023-03-11T07:22:25;22.60;;;20.30;;
8584;SDS011;7180;52.742;11.420;2023-03-11T07:24:50;22.57;;;20.23;;
8584;SDS011;7180;52.742;11.420;2023-03-11T07:27:15;23.57;;;21.07;;
8584;SDS011;7180;52.742;11.420;2023-03-11T07:29:40;21.90;;;19.60;;
8584;SDS011;7180;52.742;11.420;2023-03-11T07:32:06;22.00;;;19.70;;
8584;SDS011;7180;52.742;11.420;2023-03-11T07:34:32;21.03;;;18.87;;
8584;SDS011;7180;52.742;11.420;2023-03-11T07:36:57;20.07;;;18.13;;
8584;SDS011;7180;52.742;11.420;2023-03-11T07:39:23;19.73;;;17.80;;
8584;SDS011;7180;52.742;11.420;2023-03-11T07:41:48;20.37;;;18.20;;
8584;SDS011;7180;52.742;11.420;2023-03-11T07:44:14;19.00;;;17.10;;
8584;SDS011;7180;52.742;11.420;2023-03-11T07:46:40;19.47;;;17.47;;
8584;SDS011;7180;52.742;11.420;2023-03-11T07:49:06;18.73;;;16.90;;
8584;SDS011;7180;52.742;11.420;2023-03-11T07:51:32;18.13;;;16.37;;
8584;SDS011;7180;52.742;11.420;2023-03-11T07:53:59;19.03;;;17.17;;
8584;SDS011;7180;52.742;11.420;2023-03-11T07:56:25;18.60;;;16.83;;
8584;SDS011;7180;52.742;11.420;2023-03-11T07:58:56;17.53;;;15.83;;
8584;SDS011;7180;52.742;11.420;2023-03-11T08:01:23;18.40;;;16.60;;
8584;SDS011;7180;52.742;11.420;2023-03-11T08:03:50;16.67;;;15.13;;
8584;SDS011;7180;52.742;11.420;2023-03-11T08:06:30;16.40;;;14.90;;
8584;SDS011;7180;52.742;11.420;2023-03-11T08:09:00;17.00;;;15.30;;
8584;SDS011;7180;52.742;11.420;2023-03-11T08:11:28;17.17;;;15.37;;
8584;SDS011;7180;52.742;11.420;2023-03-11T08:13:54;17.60;;;15.80;;
8584;SDS011;7180;52.742;11.420;2023-03-11T08:16:21;16.77;;;15.07;;
8584;SDS011;7180;52.742;11.420;2023-03-11T08:18:48;17.20;;;15.60;;
8584;SDS011;7180;52.742;11.420;2023-03-11T08:21:16;16.97;;;15.27;;
8584;SDS011;7180;52.742;11.420;2023-03-11T08:23:46;17.27;;;15.53;;
8584;SDS011;7180;52.742;11.420;2023-03-11T08:26:12;17.17;;;15.47;;
8584;SDS011;7180;52.742;11.420;2023-03-11T08:28:39;17.73;;;15.87;;
8584;SDS011;7180;52.742;11.420;2023-03-11T08:31:15;16.87;;;15.27;;
8584;SDS011;7180;52.742;11.420;2023-03-11T08:33:43;17.27;;;15.57;;
8584;SDS011;7180;52.742;11.420;2023-03-11T08:36:09;18.10;;;16.40;;
8584;SDS011;7180;52.742;11.420;2023-03-11T08:38:35;18.30;;;16.43;;
8584;SDS011;7180;52.742;11.420;2023-03-11T08:41:00;17.97;;;16.17;;
8584;SDS011;7180;52.742;11.420;2023-03-11T08:43:26;17.77;;;16.07;;
8584;SDS011;7180;52.742;11.420;2023-03-11T08:45:51;17.47;;;15.87;;
8584;SDS011;7180;52.742;11.420;2023-03-11T08:48:17;18.37;;;16.67;;
8584;SDS011;7180;52.742;11.420;2023-03-11T08:50:42;17.83;;;16.17;;
8584;SDS011;7180;52.742;11.420;2023-03-11T08:53:08;17.47;;;15.77;;
8584;SDS011;7180;52.742;11.420;2023-03-11T08:55:34;17.77;;;15.97;;
8584;SDS011;7180;52.742;11.420;2023-03-11T08:57:59;17.97;;;16.27;;
8584;SDS011;7180;52.742;11.420;2023-03-11T09:00:25;17.93;;;16.10;;
8584;SDS011;7180;52.742;11.420;2023-03-11T09:02:51;17.23;;;15.53;;
8584;SDS011;7180;52.742;11.420;2023-03-11T09:05:16;17.27;;;15.47;;
8584;SDS011;7180;52.742;11.420;2023-03-11T09:07:41;16.77;;;15.07;;
8584;SDS011;7180;52.742;11.420;2023-03-11T09:10:07;17.10;;;15.50;;
8584;SDS011;7180;52.742;11.420;2023-03-11T09:12:32;16.63;;;15.10;;
8584;SDS011;7180;52.742;11.420;2023-03-11T09:14:58;15.87;;;14.37;;
8584;SDS011;7180;52.742;11.420;2023-03-11T09:17:23;16.83;;;15.33;;
8584;SDS011;7180;52.742;11.420;2023-03-11T09:19:48;17.17;;;15.57;;
8584;SDS011;7180;52.742;11.420;2023-03-11T09:22:14;15.87;;;14.47;;
8584;SDS011;7180;52.742;11.420;2023-03-11T09:24:39;17.17;;;15.57;;
8584;SDS011;7180;52.742;11.420;2023-03-11T09:27:05;16.83;;;15.33;;
8584;SDS011;7180;52.742;11.420;2023-03-11T09:29:30;17.57;;;15.97;;
8584;SDS011;7180;52.742;11.420;2023-03-11T09:31:56;16.43;;;14.93;;
8584;SDS011;7180;52.742;11.420;2023-03-11T09:34:21;16.90;;;15.40;;
8584;SDS011;7180;52.742;11.420;2023-03-11T09:36:47;16.37;;;14.97;;
8584;SDS011;7180;52.742;11.420;2023-03-11T09:39:13;16.83;;;15.23;;
8584;SDS011;7180;52.742;11.420;2023-03-11T09:50:05;17.70;;;16.03;;
8584;SDS011;7180;52.742;11.420;2023-03-11T09:52:41;19.33;;;17.43;;
8584;SDS011;7180;52.742;11.420;2023-03-11T09:55:18;17.93;;;16.23;;
8584;SDS011;7180;52.742;11.420;2023-03-11T09:57:45;20.13;;;17.93;;
8584;SDS011;7180;52.742;11.420;2023-03-11T10:00:12;18.57;;;16.77;;
8584;SDS011;7180;52.742;11.420;2023-03-11T10:02:43;17.90;;;16.20;;
8584;SDS011;7180;52.742;11.420;2023-03-11T10:05:12;17.83;;;16.23;;
8584;SDS011;7180;52.742;11.420;2023-03-11T10:07:46;16.83;;;15.33;;
8584;SDS011;7180;52.742;11.420;2023-03-11T10:10:17;16.63;;;15.20;;
8584;SDS011;7180;52.742;11.420;2023-03-11T10:12:58;16.50;;;15.10;;
8584;SDS011;7180;52.742;11.420;2023-03-11T10:18:32;16.63;;;15.10;;
8584;SDS011;7180;52.742;11.420;2023-03-11T10:34:55;15.40;;;14.03;;
8584;SDS011;7180;52.742;11.420;2023-03-11T10:37:28;15.30;;;14.00;;
8584;SDS011;7180;52.742;11.420;2023-03-11T10:40:01;15.50;;;14.30;;
8584;SDS011;7180;52.742;11.420;2023-03-11T10:42:39;15.20;;;14.00;;
8584;SDS011;7180;52.742;11.420;2023-03-11T10:45:11;15.40;;;14.00;;
8584;SDS011;7180;52.742;11.420;2023-03-11T10:47:37;15.13;;;13.93;;
8584;SDS011;7180;52.742;11.420;2023-03-11T10:50:03;13.93;;;12.83;;
8584;SDS011;7180;52.742;11.420;2023-03-11T10:52:28;13.80;;;12.70;;
8584;SDS011;7180;52.742;11.420;2023-03-11T10:55:00;14.50;;;13.27;;
8584;SDS011;7180;52.742;11.420;2023-03-11T10:57:33;14.37;;;13.07;;
8584;SDS011;7180;52.742;11.420;2023-03-11T11:00:01;13.90;;;12.53;;
8584;SDS011;7180;52.742;11.420;2023-03-11T11:02:48;16.77;;;15.10;;
8584;SDS011;7180;52.742;11.420;2023-03-11T11:07:41;14.83;;;13.43;;
8584;SDS011;7180;52.742;11.420;2023-03-11T11:12:35;14.07;;;12.87;;
8584;SDS011;7180;52.742;11.420;2023-03-11T11:15:00;14.67;;;13.47;;
8584;SDS011;7180;52.742;11.420;2023-03-11T11:17:27;12.97;;;12.07;;
8584;SDS011;7180;52.742;11.420;2023-03-11T11:19:55;13.20;;;12.17;;
8584;SDS011;7180;52.742;11.420;2023-03-11T11:22:22;12.60;;;11.60;;
8584;SDS011;7180;52.742;11.420;2023-03-11T11:24:50;12.57;;;11.67;;
8584;SDS011;7180;52.742;11.420;2023-03-11T11:27:21;12.87;;;11.87;;
8584;SDS011;7180;52.742;11.420;2023-03-11T11:30:01;13.87;;;12.80;;
8584;SDS011;7180;52.742;11.420;2023-03-11T11:32:39;12.87;;;11.77;;
8584;SDS011;7180;52.742;11.420;2023-03-11T11:35:14;12.80;;;11.90;;
8584;SDS011;7180;52.742;11.420;2023-03-11T11:37:41;12.30;;;11.50;;
8584;SDS011;7180;52.742;11.420;2023-03-11T11:42:45;13.03;;;11.93;;
8584;SDS011;7180;52.742;11.420;2023-03-11T11:45:18;12.63;;;11.63;;
8584;SDS011;7180;52.742;11.420;2023-03-11T11:47:51;11.70;;;10.90;;
8584;SDS011;7180;52.742;11.420;2023-03-11T11:53:03;12.57;;;11.67;;
8584;SDS011;7180;52.742;11.420;2023-03-11T11:55:37;12.90;;;12.00;;
8584;SDS011;7180;52.742;11.420;2023-03-11T11:58:08;12.97;;;12.07;;
8584;SDS011;7180;52.742;11.420;2023-03-11T12:00:49;12.23;;;11.43;;
8584;SDS011;7180;52.742;11.420;2023-03-11T12:06:00;12.13;;;11.33;;
8584;SDS011;7180;52.742;11.420;2023-03-11T12:11:27;12.47;;;11.67;;
8584;SDS011;7180;52.742;11.420;2023-03-11T12:17:06;11.30;;;10.53;;
8584;SDS011;7180;52.742;11.420;2023-03-11T12:30:39;11.20;;;10.37;;
8584;SDS011;7180;52.742;11.420;2023-03-11T12:33:18;11.13;;;10.43;;
8584;SDS011;7180;52.742;11.420;2023-03-11T12:35:48;11.43;;;10.73;;
8584;SDS011;7180;52.742;11.420;2023-03-11T12:38:19;10.90;;;10.20;;
8584;SDS011;7180;52.742;11.420;2023-03-11T12:46:12;11.10;;;10.30;;
8584;SDS011;7180;52.742;11.420;2023-03-11T12:53:50;10.30;;;9.40;;
8584;SDS011;7180;52.742;11.420;2023-03-11T13:02:02;13.33;;;12.03;;
8584;SDS011;7180;52.742;11.420;2023-03-11T13:10:00;10.80;;;10.07;;
8584;SDS011;7180;52.742;11.420;2023-03-11T13:12:47;10.70;;;10.10;;
8584;SDS011;7180;52.742;11.420;2023-03-11T13:25:37;10.50;;;9.87;;
8584;SDS011;7180;52.742;11.420;2023-03-11T13:28:16;10.60;;;10.03;;
8584;SDS011;7180;52.742;11.420;2023-03-11T13:34:03;10.50;;;9.90;;
8584;SDS011;7180;52.742;11.420;2023-03-11T13:36:42;10.50;;;9.80;;
8584;SDS011;7180;52.742;11.420;2023-03-11T13:39:19;10.10;;;9.37;;
8584;SDS011;7180;52.742;11.420;2023-03-11T13:41:52;9.50;;;8.90;;
8584;SDS011;7180;52.742;11.420;2023-03-11T13:47:03;9.17;;;8.67;;
8584;SDS011;7180;52.742;11.420;2023-03-11T13:52:11;9.60;;;9.10;;
8584;SDS011;7180;52.742;11.420;2023-03-11T13:54:44;10.10;;;9.50;;
8584;SDS011;7180;52.742;11.420;2023-03-11T13:57:29;9.87;;;9.07;;
8584;SDS011;7180;52.742;11.420;2023-03-11T13:59:56;10.20;;;9.37;;
8584;SDS011;7180;52.742;11.420;2023-03-11T14:02:27;9.37;;;8.70;;
8584;SDS011;7180;52.742;11.420;2023-03-11T14:05:02;9.90;;;9.20;;
8584;SDS011;7180;52.742;11.420;2023-03-11T14:07:31;10.03;;;9.40;;
8584;SDS011;7180;52.742;11.420;2023-03-11T14:12:50;9.47;;;8.97;;
8584;SDS011;7180;52.742;11.420;2023-03-11T14:15:28;9.50;;;8.90;;
8584;SDS011;7180;52.742;11.420;2023-03-11T14:20:50;9.20;;;8.60;;
8584;SDS011;7180;52.742;11.420;2023-03-11T14:23:17;9.50;;;8.90;;
8584;SDS011;7180;52.742;11.420;2023-03-11T14:25:43;9.27;;;8.83;;
8584;SDS011;7180;52.742;11.420;2023-03-11T14:28:13;9.47;;;8.93;;
8584;SDS011;7180;52.742;11.420;2023-03-11T14:30:53;9.30;;;8.70;;
8584;SDS011;7180;52.742;11.420;2023-03-11T14:33:23;9.53;;;8.77;;
8584;SDS011;7180;52.742;11.420;2023-03-11T14:35:52;10.07;;;9.20;;
8584;SDS011;7180;52.742;11.420;2023-03-11T14:38:23;8.80;;;8.23;;
8584;SDS011;7180;52.742;11.420;2023-03-11T14:40:52;9.83;;;9.03;;
8584;SDS011;7180;52.742;11.420;2023-03-11T14:43:33;9.73;;;9.10;;
8584;SDS011;7180;52.742;11.420;2023-03-11T14:46:03;9.53;;;9.03;;
8584;SDS011;7180;52.742;11.420;2023-03-11T14:48:40;9.40;;;8.80;;
8584;SDS011;7180;52.742;11.420;2023-03-11T14:51:11;9.90;;;9.20;;
8584;SDS011;7180;52.742;11.420;2023-03-11T14:53:42;8.67;;;8.17;;
8584;SDS011;7180;52.742;11.420;2023-03-11T14:56:12;10.27;;;9.40;;
8584;SDS011;7180;52.742;11.420;2023-03-11T14:58:48;9.27;;;8.67;;
8584;SDS011;7180;52.742;11.420;2023-03-11T15:04:10;10.27;;;9.57;;
8584;SDS011;7180;52.742;11.420;2023-03-11T15:06:38;9.03;;;8.53;;
8584;SDS011;7180;52.742;11.420;2023-03-11T15:09:07;9.30;;;8.60;;
8584;SDS011;7180;52.742;11.420;2023-03-11T15:11:49;9.10;;;8.60;;
8584;SDS011;7180;52.742;11.420;2023-03-11T15:14:20;8.90;;;8.33;;
8584;SDS011;7180;52.742;11.420;2023-03-11T15:16:48;8.63;;;8.13;;
8584;SDS011;7180;52.742;11.420;2023-03-11T15:21:51;9.87;;;8.90;;
8584;SDS011;7180;52.742;11.420;2023-03-11T15:24:22;11.37;;;9.63;;
8584;SDS011;7180;52.742;11.420;2023-03-11T15:26:59;15.97;;;11.00;;
8584;SDS011;7180;52.742;11.420;2023-03-11T15:29:27;23.97;;;13.33;;
8584;SDS011;7180;52.742;11.420;2023-03-11T15:31:54;18.03;;;11.20;;
8584;SDS011;7180;52.742;11.420;2023-03-11T15:34:28;17.73;;;11.53;;
8584;SDS011;7180;52.742;11.420;2023-03-11T15:36:57;36.57;;;16.43;;
8584;SDS011;7180;52.742;11.420;2023-03-11T15:42:00;16.60;;;13.03;;
8584;SDS011;7180;52.742;11.420;2023-03-11T15:47:01;11.47;;;10.53;;
8584;SDS011;7180;52.742;11.420;2023-03-11T15:49:28;10.40;;;9.73;;
8584;SDS011;7180;52.742;11.420;2023-03-11T15:51:57;10.10;;;9.40;;
8584;SDS011;7180;52.742;11.420;2023-03-11T15:54:23;9.90;;;9.20;;
8584;SDS011;7180;52.742;11.420;2023-03-11T15:56:49;10.07;;;9.37;;
8584;SDS011;7180;52.742;11.420;2023-03-11T15:59:14;9.70;;;9.10;;
8584;SDS011;7180;52.742;11.420;2023-03-11T16:01:41;10.40;;;9.40;;
8584;SDS011;7180;52.742;11.420;2023-03-11T16:04:14;10.30;;;9.40;;
8584;SDS011;7180;52.742;11.420;2023-03-11T16:06:41;10.00;;;9.00;;
8584;SDS011;7180;52.742;11.420;2023-03-11T16:09:08;9.63;;;8.80;;
8584;SDS011;7180;52.742;11.420;2023-03-11T16:11:34;9.97;;;9.27;;
8584;SDS011;7180;52.742;11.420;2023-03-11T16:14:00;10.73;;;9.73;;
8584;SDS011;7180;52.742;11.420;2023-03-11T16:16:27;11.07;;;10.10;;
8584;SDS011;7180;52.742;11.420;2023-03-11T16:18:52;11.50;;;10.60;;
8584;SDS011;7180;52.742;11.420;2023-03-11T16:21:19;10.33;;;9.63;;
8584;SDS011;7180;52.742;11.420;2023-03-11T16:23:46;10.13;;;9.30;;
8584;SDS011;7180;52.742;11.420;2023-03-11T16:26:12;10.60;;;9.60;;
8584;SDS011;7180;52.742;11.420;2023-03-11T16:28:38;12.80;;;9.97;;
8584;SDS011;7180;52.742;11.420;2023-03-11T16:31:04;9.07;;;8.13;;
8584;SDS011;7180;52.742;11.420;2023-03-11T16:33:32;8.97;;;8.23;;
8584;SDS011;7180;52.742;11.420;2023-03-11T16:35:57;8.73;;;7.93;;
8584;SDS011;7180;52.742;11.420;2023-03-11T16:38:23;8.40;;;7.80;;